createdAt,value
2018-05-15T00:00:01.711Z,34.80
2018-05-15T00:02:29.949Z,35.00
2018-05-15T00:04:58.194Z,35.20
2018-05-15T00:07:27.193Z,35.40
2018-05-15T00:09:56.216Z,35.40
2018-05-15T00:12:24.464Z,35.40
2018-05-15T00:14:53.488Z,35.40
2018-05-15T00:17:21.725Z,35.30
2018-05-15T00:19:49.968Z,35.40
2018-05-15T00:22:18.237Z,35.40
2018-05-15T00:24:46.480Z,35.20
2018-05-15T00:27:15.484Z,36.10
2018-05-15T00:29:43.752Z,36.00
2018-05-15T00:32:12.764Z,36.40
2018-05-15T00:34:41.068Z,36.30
2018-05-15T00:37:09.309Z,36.40
2018-05-15T00:39:38.331Z,36.40
2018-05-15T00:42:07.333Z,36.30
2018-05-15T00:44:35.642Z,36.40
2018-05-15T00:47:04.592Z,36.70
2018-05-15T00:49:33.604Z,36.70
2018-05-15T00:52:01.879Z,36.80
2018-05-15T00:54:30.139Z,36.90
2018-05-15T00:56:59.261Z,36.90
2018-05-15T00:59:27.536Z,36.90
2018-05-15T01:01:56.596Z,36.90
2018-05-15T01:04:24.843Z,36.80
2018-05-15T01:06:53.927Z,37.00
2018-05-15T01:09:22.194Z,37.00
2018-05-15T01:11:51.209Z,37.30
2018-05-15T01:14:19.507Z,37.30
2018-05-15T01:16:47.771Z,37.40
2018-05-15T01:19:16.041Z,37.40
2018-05-15T01:21:44.316Z,38.00
2018-05-15T01:24:13.333Z,38.10
2018-05-15T01:26:41.574Z,38.00
2018-05-15T01:29:09.808Z,37.50
2018-05-15T01:31:38.063Z,37.40
2018-05-15T01:34:06.333Z,37.30
2018-05-15T01:36:34.643Z,37.30
2018-05-15T01:39:02.888Z,37.20
2018-05-15T01:41:31.184Z,37.20
2018-05-15T01:44:00.351Z,37.30
2018-05-15T01:46:28.608Z,37.30
2018-05-15T01:48:56.855Z,37.30
2018-05-15T01:51:25.129Z,37.20
2018-05-15T01:53:53.379Z,37.20
2018-05-15T01:56:22.406Z,37.10
2018-05-15T01:58:50.697Z,37.00
2018-05-15T02:01:18.952Z,37.20
2018-05-15T02:03:47.970Z,37.20
2018-05-15T02:06:16.238Z,37.00
2018-05-15T02:08:44.513Z,37.40
2018-05-15T02:11:13.536Z,38.60
2018-05-15T02:13:41.790Z,37.90
2018-05-15T02:16:10.837Z,38.10
2018-05-15T02:18:39.928Z,38.40
2018-05-15T02:21:08.219Z,38.60
2018-05-15T02:23:36.468Z,38.80
2018-05-15T02:26:04.748Z,38.60
2018-05-15T02:28:32.999Z,39.10
2018-05-15T02:31:02.025Z,38.40
2018-05-15T02:33:30.276Z,38.00
2018-05-15T02:35:59.307Z,37.50
2018-05-15T02:38:27.564Z,37.30
2018-05-15T02:40:56.571Z,37.30
2018-05-15T02:43:25.579Z,37.70
2018-05-15T02:45:53.812Z,37.60
2018-05-15T02:48:22.859Z,38.00
2018-05-15T02:50:51.132Z,38.10
2018-05-15T02:53:19.372Z,38.20
2018-05-15T02:55:47.643Z,38.10
2018-05-15T02:58:15.861Z,37.80
2018-05-15T03:00:44.131Z,38.10
2018-05-15T03:03:13.167Z,38.00
2018-05-15T03:05:41.414Z,37.90
2018-05-15T03:08:10.418Z,38.00
2018-05-15T03:10:38.690Z,37.80
2018-05-15T03:13:07.685Z,38.30
2018-05-15T03:15:35.969Z,37.90
2018-05-15T03:18:04.961Z,38.50
2018-05-15T03:20:33.960Z,38.60
2018-05-15T03:23:02.976Z,38.80
2018-05-15T03:25:31.251Z,39.00
2018-05-15T03:27:59.802Z,38.90
2018-05-15T03:30:28.052Z,39.00
2018-05-15T03:32:56.335Z,38.90
2018-05-15T03:35:24.599Z,39.50
2018-05-15T03:37:52.873Z,39.50
2018-05-15T03:40:21.115Z,39.80
2018-05-15T03:42:50.121Z,39.20
2018-05-15T03:45:19.151Z,38.90
2018-05-15T03:47:47.418Z,38.70
2018-05-15T03:50:15.685Z,38.70
2018-05-15T03:52:43.928Z,38.10
2018-05-15T03:55:12.176Z,38.30
2018-05-15T03:57:40.401Z,37.90
2018-05-15T04:00:21.120Z,37.60
2018-05-15T04:03:01.154Z,37.70
2018-05-15T04:05:41.326Z,37.70
2018-05-15T04:08:14.915Z,37.80
2018-05-15T04:10:43.254Z,37.60
2018-05-15T04:13:11.440Z,37.70
2018-05-15T04:15:40.460Z,37.60
2018-05-15T04:18:08.729Z,37.40
2018-05-15T04:20:37.752Z,37.20
2018-05-15T04:23:06.006Z,37.30
2018-05-15T04:25:35.009Z,37.10
2018-05-15T04:28:04.156Z,37.30
2018-05-15T04:30:33.112Z,37.50
2018-05-15T04:33:02.199Z,37.60
2018-05-15T04:35:31.229Z,37.60
2018-05-15T04:37:59.462Z,37.60
2018-05-15T04:40:28.476Z,37.20
2018-05-15T04:42:56.744Z,37.20
2018-05-15T04:45:25.777Z,37.10
2018-05-15T04:47:54.032Z,37.00
2018-05-15T04:50:22.296Z,37.10
2018-05-15T04:52:50.554Z,38.70
2018-05-15T04:55:18.771Z,39.40
2018-05-15T04:57:47.804Z,39.60
2018-05-15T05:00:16.065Z,39.90
2018-05-15T05:02:44.316Z,39.90
2018-05-15T05:05:12.568Z,39.40
2018-05-15T05:07:40.812Z,38.60
2018-05-15T05:10:09.124Z,38.00
2018-05-15T05:12:37.371Z,38.00
2018-05-15T05:15:05.620Z,37.80
2018-05-15T05:17:34.624Z,37.20
2018-05-15T05:20:03.644Z,37.30
2018-05-15T05:22:31.869Z,37.30
2018-05-15T05:25:00.135Z,37.40
2018-05-15T05:27:28.366Z,37.30
2018-05-15T05:29:57.361Z,37.20
2018-05-15T05:32:26.372Z,37.40
2018-05-15T05:34:54.615Z,37.40
2018-05-15T05:37:22.873Z,37.50
2018-05-15T05:39:51.110Z,37.50
2018-05-15T05:42:19.384Z,37.20
2018-05-15T05:44:48.411Z,37.30
2018-05-15T05:47:17.576Z,37.30
2018-05-15T05:49:46.573Z,37.40
2018-05-15T05:52:15.600Z,37.70
2018-05-15T05:54:43.838Z,37.60
2018-05-15T05:57:12.839Z,38.10
2018-05-15T05:59:41.875Z,37.80
2018-05-15T06:02:10.113Z,37.60
2018-05-15T06:04:39.148Z,37.80
2018-05-15T06:07:07.390Z,37.50
2018-05-15T06:09:35.671Z,37.20
2018-05-15T06:12:03.899Z,37.60
2018-05-15T06:14:32.165Z,37.60
2018-05-15T06:17:01.177Z,37.30
2018-05-15T06:19:29.417Z,37.40
2018-05-15T06:21:57.714Z,37.30
2018-05-15T06:24:25.928Z,37.40
2018-05-15T06:26:54.184Z,37.30
2018-05-15T06:29:22.454Z,37.50
2018-05-15T06:31:51.453Z,37.60
2018-05-15T06:34:19.709Z,37.60
2018-05-15T06:36:48.722Z,37.60
2018-05-15T06:39:17.001Z,37.70
2018-05-15T06:41:45.996Z,37.80
2018-05-15T06:44:15.020Z,37.20
2018-05-15T06:46:43.265Z,37.30
2018-05-15T06:49:12.301Z,37.00
2018-05-15T06:51:40.537Z,36.90
2018-05-15T06:54:08.794Z,37.00
2018-05-15T06:56:37.048Z,36.70
2018-05-15T06:59:05.284Z,37.00
2018-05-15T07:01:34.320Z,37.00
2018-05-15T07:04:02.549Z,36.80
2018-05-15T07:06:30.817Z,36.60
2018-05-15T07:08:59.072Z,36.30
2018-05-15T07:11:27.332Z,36.20
2018-05-15T07:13:55.616Z,36.50
2018-05-15T07:16:24.624Z,35.80
2018-05-15T07:18:52.854Z,35.60
2018-05-15T07:21:21.111Z,35.70
2018-05-15T07:23:49.360Z,35.70
2018-05-15T07:26:17.604Z,36.00
2018-05-15T07:28:46.617Z,35.90
2018-05-15T07:31:15.602Z,35.60
2018-05-15T07:33:44.640Z,35.70
2018-05-15T07:36:12.881Z,35.60
2018-05-15T07:38:41.893Z,35.80
2018-05-15T07:41:10.143Z,35.80
2018-05-15T07:43:38.400Z,36.20
2018-05-15T07:46:06.673Z,36.40
2018-05-15T07:48:34.906Z,36.00
2018-05-15T07:51:03.184Z,35.80
2018-05-15T07:53:31.532Z,36.10
2018-05-15T07:56:00.462Z,36.40
2018-05-15T07:58:29.701Z,36.00
2018-05-15T08:00:58.325Z,36.10
2018-05-15T08:03:26.770Z,35.90
2018-05-15T08:05:56.184Z,35.80
2018-05-15T08:08:24.411Z,35.90
2018-05-15T08:10:52.703Z,35.90
2018-05-15T08:13:21.723Z,35.60
2018-05-15T08:15:49.984Z,35.50
2018-05-15T08:18:18.995Z,35.10
2018-05-15T08:20:47.283Z,35.10
2018-05-15T08:23:15.535Z,35.30
2018-05-15T08:25:44.549Z,35.40
2018-05-15T08:28:12.798Z,35.30
2018-05-15T08:30:41.025Z,35.10
2018-05-15T08:33:09.290Z,35.30
2018-05-15T08:35:37.535Z,35.30
2018-05-15T08:38:05.797Z,35.20
2018-05-15T08:40:34.054Z,35.50
2018-05-15T08:43:02.294Z,35.00
2018-05-15T08:45:31.308Z,35.40
2018-05-15T08:47:59.537Z,35.20
2018-05-15T08:50:27.808Z,35.70
2018-05-15T08:52:56.051Z,35.60
2018-05-15T08:55:24.334Z,36.20
2018-05-15T08:57:52.578Z,35.30
2018-05-15T09:00:20.847Z,35.00
2018-05-15T09:02:49.151Z,35.30
2018-05-15T09:05:18.181Z,35.20
2018-05-15T09:07:46.454Z,35.20
2018-05-15T09:10:14.719Z,35.20
2018-05-15T09:12:43.721Z,35.10
2018-05-15T09:15:11.991Z,35.10
2018-05-15T09:17:41.047Z,34.60
2018-05-15T09:20:09.288Z,34.60
2018-05-15T09:22:37.545Z,34.60
2018-05-15T09:25:06.552Z,34.60
2018-05-15T09:27:34.825Z,34.60
2018-05-15T09:30:03.842Z,34.70
2018-05-15T09:32:32.191Z,34.60
2018-05-15T09:35:00.444Z,34.70
2018-05-15T09:37:28.706Z,34.90
2018-05-15T09:39:56.977Z,35.00
2018-05-15T09:42:25.221Z,34.60
2018-05-15T09:44:53.471Z,34.40
2018-05-15T09:47:21.738Z,34.70
2018-05-15T09:49:49.995Z,34.90
2018-05-15T09:52:18.256Z,34.90
2018-05-15T09:54:46.491Z,34.60
2018-05-15T09:57:14.737Z,34.30
2018-05-15T09:59:43.025Z,34.50
2018-05-15T10:02:11.264Z,34.40
2018-05-15T10:04:40.308Z,33.90
2018-05-15T10:07:09.405Z,34.10
2018-05-15T10:09:37.645Z,34.10
2018-05-15T10:12:06.726Z,33.50
2018-05-15T10:14:34.970Z,33.50
2018-05-15T10:17:03.246Z,33.50
2018-05-15T10:19:31.522Z,33.30
2018-05-15T10:21:59.777Z,33.50
2018-05-15T10:24:28.018Z,33.90
2018-05-15T10:26:56.257Z,33.80
2018-05-15T10:29:24.511Z,33.80
2018-05-15T10:31:53.548Z,34.10
2018-05-15T10:34:21.785Z,34.00
2018-05-15T10:36:50.813Z,33.90
2018-05-15T10:39:19.060Z,33.90
2018-05-15T10:41:48.099Z,33.40
2018-05-15T10:44:16.334Z,33.40
2018-05-15T10:46:45.338Z,33.00
2018-05-15T10:49:14.399Z,33.10
2018-05-15T10:51:42.655Z,33.00
2018-05-15T10:54:10.904Z,32.70
2018-05-15T10:56:39.145Z,33.10
2018-05-15T10:59:07.405Z,33.50
2018-05-15T11:01:35.641Z,33.10
2018-05-15T11:04:03.907Z,32.90
2018-05-15T11:06:32.949Z,31.80
2018-05-15T11:09:01.264Z,31.80
2018-05-15T11:11:29.507Z,31.70
2018-05-15T11:13:57.775Z,31.80
2018-05-15T11:16:26.032Z,31.70
2018-05-15T11:18:55.039Z,31.80
2018-05-15T11:21:35.090Z,31.80
2018-05-15T11:27:01.012Z,31.00
2018-05-15T11:29:29.404Z,30.90
2018-05-15T11:31:57.679Z,30.10
2018-05-15T11:34:26.679Z,30.00
2018-05-15T11:36:55.673Z,29.90
2018-05-15T11:39:24.753Z,30.50
2018-05-15T11:41:53.053Z,30.00
2018-05-15T11:44:21.246Z,30.00
2018-05-15T11:46:49.570Z,29.80
2018-05-15T11:49:18.629Z,29.30
2018-05-15T11:51:47.084Z,29.60
2018-05-15T11:54:15.074Z,29.30
2018-05-15T11:56:44.100Z,29.20
2018-05-15T11:59:12.353Z,29.20
2018-05-15T12:01:41.372Z,29.10
2018-05-15T12:04:10.431Z,29.00
2018-05-15T12:06:38.901Z,29.00
2018-05-15T12:09:07.938Z,28.70
2018-05-15T12:11:36.115Z,28.60
2018-05-15T12:14:05.154Z,28.30
2018-05-15T12:16:33.425Z,28.30
2018-05-15T12:19:01.705Z,28.20
2018-05-15T12:21:29.952Z,28.30
2018-05-15T12:23:58.990Z,27.80
2018-05-15T12:26:27.232Z,27.80
2018-05-15T12:28:56.277Z,28.30
2018-05-15T12:31:24.509Z,28.30
2018-05-15T12:33:52.750Z,28.10
2018-05-15T12:36:21.008Z,28.00
2018-05-15T12:38:49.246Z,27.70
2018-05-15T12:41:18.299Z,27.70
2018-05-15T12:43:46.604Z,27.70
2018-05-15T12:46:14.861Z,27.10
2018-05-15T12:48:43.125Z,26.70
2018-05-15T12:51:11.391Z,26.40
2018-05-15T12:53:40.234Z,26.70
2018-05-15T12:56:08.489Z,26.40
2018-05-15T12:58:36.758Z,26.10
2018-05-15T13:01:04.988Z,26.10
2018-05-15T13:03:34.030Z,26.50
2018-05-15T13:06:02.284Z,26.50
2018-05-15T13:08:30.539Z,27.10
2018-05-15T13:10:59.545Z,27.70
2018-05-15T13:13:28.558Z,27.50
2018-05-15T13:15:56.813Z,27.50
2018-05-15T13:18:25.178Z,27.70
2018-05-15T13:20:54.112Z,27.50
2018-05-15T13:23:23.116Z,27.40
2018-05-15T13:25:51.375Z,27.40
2018-05-15T13:28:20.450Z,27.50
2018-05-15T13:30:48.705Z,27.40
2018-05-15T13:33:16.979Z,26.50
2018-05-15T13:35:45.216Z,26.20
2018-05-15T13:38:14.260Z,26.50
2018-05-15T13:40:42.541Z,26.50
2018-05-15T13:43:10.765Z,26.70
2018-05-15T13:45:39.782Z,25.90
2018-05-15T13:48:08.821Z,26.10
2018-05-15T13:50:37.110Z,26.00
2018-05-15T13:53:06.071Z,26.10
2018-05-15T13:55:34.338Z,26.10
2018-05-15T13:58:03.371Z,26.20
2018-05-15T14:00:31.691Z,26.30
2018-05-15T14:02:59.921Z,26.40
2018-05-15T14:05:28.180Z,26.60
2018-05-15T14:07:56.461Z,27.70
2018-05-15T14:10:24.721Z,27.40
2018-05-15T14:12:52.958Z,27.30
2018-05-15T14:15:21.254Z,27.00
2018-05-15T14:17:49.484Z,27.20
2018-05-15T14:20:17.766Z,26.80
2018-05-15T14:22:46.055Z,26.80
2018-05-15T14:25:14.324Z,27.00
2018-05-15T14:27:42.610Z,27.00
2018-05-15T14:30:10.858Z,26.70
2018-05-15T14:32:39.124Z,26.60
2018-05-15T14:35:08.151Z,26.30
2018-05-15T14:37:37.188Z,26.40
2018-05-15T14:40:05.457Z,26.30
2018-05-15T14:42:45.694Z,26.60
2018-05-15T14:45:15.789Z,26.90
2018-05-15T14:47:44.050Z,27.40
2018-05-15T14:50:12.289Z,27.20
2018-05-15T14:52:40.559Z,27.00
2018-05-15T14:55:08.836Z,27.10
2018-05-15T14:57:37.162Z,26.70
2018-05-15T15:00:05.461Z,26.70
2018-05-15T15:02:33.671Z,26.60
2018-05-15T15:05:02.724Z,26.20
2018-05-15T15:07:31.395Z,26.70
2018-05-15T15:10:00.409Z,26.40
2018-05-15T15:12:28.635Z,26.40
2018-05-15T15:14:57.660Z,26.50
2018-05-15T15:17:26.045Z,26.50
2018-05-15T15:19:54.244Z,26.50
2018-05-15T15:22:22.513Z,26.40
2018-05-15T15:24:50.754Z,26.30
2018-05-15T15:27:19.767Z,26.10
2018-05-15T15:29:48.038Z,26.10
2018-05-15T15:32:16.254Z,26.30
2018-05-15T15:34:44.537Z,26.00
2018-05-15T15:37:12.821Z,26.10
2018-05-15T15:39:41.065Z,26.00
2018-05-15T15:42:10.164Z,25.90
2018-05-15T15:44:38.379Z,25.90
2018-05-15T15:47:06.655Z,25.80
2018-05-15T15:49:34.920Z,26.20
2018-05-15T15:52:03.172Z,26.10
2018-05-15T15:54:32.221Z,26.10
2018-05-15T15:57:00.454Z,26.20
2018-05-15T15:59:29.456Z,25.70
2018-05-15T16:01:58.474Z,25.70
2018-05-15T16:04:26.851Z,25.60
2018-05-15T16:06:55.100Z,25.60
2018-05-15T16:09:24.133Z,25.10
2018-05-15T16:11:52.379Z,25.10
2018-05-15T16:14:21.521Z,25.10
2018-05-15T16:16:49.801Z,25.00
2018-05-15T16:19:18.084Z,24.90
2018-05-15T16:21:46.344Z,25.40
2018-05-15T16:24:14.577Z,25.40
2018-05-15T16:26:42.829Z,25.30
2018-05-15T16:29:11.084Z,25.10
2018-05-15T16:31:40.112Z,25.40
2018-05-15T16:34:08.372Z,25.40
2018-05-15T16:36:36.672Z,25.50
2018-05-15T16:39:05.764Z,25.40
2018-05-15T16:41:34.067Z,25.80
2018-05-15T16:44:03.106Z,26.10
2018-05-15T16:46:32.157Z,25.90
2018-05-15T16:49:00.421Z,25.90
2018-05-15T16:51:28.668Z,25.70
2018-05-15T16:53:57.711Z,26.00
2018-05-15T16:56:26.017Z,26.00
2018-05-15T16:58:54.292Z,26.00
2018-05-15T17:01:22.609Z,25.50
2018-05-15T17:03:51.640Z,25.90
2018-05-15T17:06:19.924Z,25.90
2018-05-15T17:08:48.197Z,25.50
2018-05-15T17:11:16.425Z,25.90
2018-05-15T17:13:44.737Z,25.80
2018-05-15T17:16:12.948Z,25.40
2018-05-15T17:18:41.205Z,25.60
2018-05-15T17:21:09.511Z,25.60
2018-05-15T17:23:37.765Z,25.50
2018-05-15T17:26:06.058Z,25.60
2018-05-15T17:28:34.330Z,25.70
2018-05-15T17:31:02.592Z,25.80
2018-05-15T17:33:31.609Z,25.80
2018-05-15T17:35:59.870Z,25.80
2018-05-15T17:38:28.913Z,25.80
2018-05-15T17:40:57.247Z,25.80
2018-05-15T17:43:25.416Z,25.70
2018-05-15T17:45:53.660Z,25.70
2018-05-15T17:48:21.935Z,26.40
2018-05-15T17:50:50.200Z,26.10
2018-05-15T17:53:18.490Z,25.90
2018-05-15T17:55:46.734Z,25.80
2018-05-15T17:58:15.752Z,26.10
2018-05-15T18:00:44.010Z,26.00
2018-05-15T18:03:13.028Z,26.10
2018-05-15T18:05:41.279Z,26.10
2018-05-15T18:08:10.305Z,26.20
2018-05-15T18:10:38.587Z,26.30
2018-05-15T18:13:06.879Z,26.10
2018-05-15T18:15:35.140Z,26.10
2018-05-15T18:18:03.409Z,26.30
2018-05-15T18:20:32.408Z,26.50
2018-05-15T18:23:01.439Z,26.50
2018-05-15T18:25:29.692Z,26.50
2018-05-15T18:27:58.706Z,26.80
2018-05-15T18:30:26.973Z,26.80
2018-05-15T18:32:55.224Z,26.80
2018-05-15T18:35:23.477Z,26.80
2018-05-15T18:37:51.734Z,27.10
2018-05-15T18:40:20.017Z,27.00
2018-05-15T18:42:48.265Z,27.10
2018-05-15T18:45:17.316Z,27.30
2018-05-15T18:47:45.572Z,27.30
2018-05-15T18:50:13.808Z,27.40
2018-05-15T18:52:42.829Z,27.60
2018-05-15T18:55:11.069Z,27.60
2018-05-15T18:57:39.331Z,27.80
2018-05-15T19:00:07.588Z,27.80
2018-05-15T19:02:35.796Z,27.80
2018-05-15T19:05:04.067Z,27.80
2018-05-15T19:07:32.333Z,27.80
2018-05-15T19:10:00.603Z,27.70
2018-05-15T19:12:29.632Z,27.80
2018-05-15T19:14:57.890Z,27.80
2018-05-15T19:17:26.122Z,27.80
2018-05-15T19:19:55.166Z,27.80
2018-05-15T19:22:23.385Z,27.80
2018-05-15T19:24:51.681Z,27.80
2018-05-15T19:27:19.904Z,27.80
2018-05-15T19:29:48.171Z,27.90
2018-05-15T19:32:17.235Z,27.90
2018-05-15T19:34:51.203Z,28.20
2018-05-15T19:37:19.458Z,29.10
2018-05-15T19:39:48.452Z,29.60
2018-05-15T19:42:16.733Z,29.60
2018-05-15T19:44:45.741Z,29.70
2018-05-15T19:47:14.024Z,29.60
2018-05-15T19:49:42.269Z,29.80
2018-05-15T19:52:11.336Z,30.00
2018-05-15T19:54:39.610Z,30.00
2018-05-15T19:57:07.978Z,30.00
2018-05-15T19:59:36.225Z,30.70
2018-05-15T20:02:05.254Z,31.00
2018-05-15T20:04:33.496Z,31.00
2018-05-15T20:07:02.632Z,31.60
2018-05-15T20:09:30.901Z,32.30
2018-05-15T20:11:59.152Z,31.70
2018-05-15T20:14:28.193Z,31.50
2018-05-15T20:16:56.468Z,31.50
2018-05-15T20:19:24.723Z,31.40
2018-05-15T20:21:53.733Z,31.30
2018-05-15T20:24:21.990Z,31.30
2018-05-15T20:26:50.989Z,31.30
2018-05-15T20:29:19.997Z,31.60
2018-05-15T20:31:48.307Z,31.60
2018-05-15T20:34:16.617Z,31.60
2018-05-15T20:36:44.988Z,31.70
2018-05-15T20:39:13.338Z,32.10
2018-05-15T20:41:41.622Z,32.00
2018-05-15T20:44:09.857Z,32.20
2018-05-15T20:46:38.133Z,32.10
2018-05-15T20:49:07.899Z,32.10
2018-05-15T20:51:36.172Z,32.00
2018-05-15T20:54:05.169Z,32.40
2018-05-15T20:56:33.422Z,32.30
2018-05-15T20:59:02.421Z,31.80
2018-05-15T21:01:32.457Z,31.90
2018-05-15T21:04:00.774Z,31.80
2018-05-15T21:06:29.093Z,31.70
2018-05-15T21:08:57.496Z,31.90
2018-05-15T21:11:26.543Z,32.00
2018-05-15T21:13:54.838Z,32.00
2018-05-15T21:16:23.088Z,32.10
2018-05-15T21:18:51.321Z,32.10
2018-05-15T21:21:20.324Z,32.60
2018-05-15T21:23:49.358Z,33.30
2018-05-15T21:26:17.609Z,32.60
2018-05-15T21:28:46.629Z,32.50
2018-05-15T21:31:14.872Z,32.60
2018-05-15T21:33:43.165Z,33.00
2018-05-15T21:36:11.434Z,33.20
2018-05-15T21:38:40.474Z,33.60
2018-05-15T21:41:08.714Z,33.60
2018-05-15T21:43:36.959Z,33.70
2018-05-15T21:46:05.301Z,33.10
2018-05-15T21:48:33.473Z,32.90
2018-05-15T21:51:01.720Z,32.80
2018-05-15T21:53:29.967Z,33.00
2018-05-15T21:55:58.220Z,33.20
2018-05-15T21:58:26.497Z,33.20
2018-05-15T22:00:54.727Z,33.50
2018-05-15T22:03:22.989Z,33.60
2018-05-15T22:05:51.269Z,33.80
2018-05-15T22:08:19.525Z,33.80
2018-05-15T22:10:47.795Z,34.60
2018-05-15T22:13:27.993Z,34.00
2018-05-15T22:16:14.308Z,34.20
2018-05-15T22:19:00.570Z,34.30
2018-05-15T22:21:47.720Z,34.80
2018-05-15T22:24:26.282Z,34.80
2018-05-15T22:26:54.552Z,34.80
2018-05-15T22:29:22.803Z,34.70
2018-05-15T22:31:51.020Z,35.10
2018-05-15T22:34:19.272Z,35.30
2018-05-15T22:36:48.281Z,35.60
2018-05-15T22:39:16.538Z,35.60
2018-05-15T22:41:44.837Z,36.00
2018-05-15T22:44:13.032Z,35.90
2018-05-15T22:46:41.293Z,35.90
2018-05-15T22:49:10.309Z,36.40
2018-05-15T22:51:38.568Z,36.30
2018-05-15T22:54:06.820Z,36.30
2018-05-15T22:56:35.113Z,36.30
2018-05-15T22:59:04.133Z,35.90
2018-05-15T23:01:32.389Z,36.30
2018-05-15T23:04:00.611Z,36.20
2018-05-15T23:06:28.901Z,36.00
2018-05-15T23:08:57.153Z,36.10
2018-05-15T23:11:25.409Z,36.10
2018-05-15T23:13:54.405Z,36.10
2018-05-15T23:16:23.449Z,36.10
2018-05-15T23:18:51.693Z,36.10
2018-05-15T23:21:20.685Z,36.20
2018-05-15T23:23:49.728Z,36.40
2018-05-15T23:26:17.989Z,36.20
2018-05-15T23:28:46.256Z,36.30
2018-05-15T23:31:15.247Z,36.20
2018-05-15T23:33:44.270Z,36.30
2018-05-15T23:36:12.562Z,36.30
2018-05-15T23:38:40.808Z,36.20
2018-05-15T23:41:09.822Z,36.30
2018-05-15T23:43:38.168Z,36.30
2018-05-15T23:46:07.916Z,36.20
2018-05-15T23:48:36.176Z,36.20
2018-05-15T23:51:05.184Z,35.70
2018-05-15T23:53:34.172Z,35.40
2018-05-15T23:56:03.188Z,35.30
2018-05-15T23:58:31.480Z,35.20
